sensor_id;sensor_type;location;lat;lon;timestamp;temperature;humidity
43999;DHT22;51319;52.162;5.302;2023-07-28T00:00:59;18.80;99.90
43999;DHT22;51319;52.162;5.302;2023-07-28T00:03:26;18.80;99.90
43999;DHT22;51319;52.162;5.302;2023-07-28T00:05:53;18.80;99.90
43999;DHT22;51319;52.162;5.302;2023-07-28T00:08:20;18.80;99.90
43999;DHT22;51319;52.162;5.302;2023-07-28T00:10:46;18.80;99.90
43999;DHT22;51319;52.162;5.302;2023-07-28T00:13:14;18.80;99.90
43999;DHT22;51319;52.162;5.302;2023-07-28T00:15:40;18.80;99.90
43999;DHT22;51319;52.162;5.302;2023-07-28T00:18:07;18.80;99.90
43999;DHT22;51319;52.162;5.302;2023-07-28T00:20:34;18.80;99.90
43999;DHT22;51319;52.162;5.302;2023-07-28T00:23:02;18.80;99.90
43999;DHT22;51319;52.162;5.302;2023-07-28T00:25:28;18.80;99.90
43999;DHT22;51319;52.162;5.302;2023-07-28T00:27:55;18.80;99.90
43999;DHT22;51319;52.162;5.302;2023-07-28T00:30:22;18.80;99.90
43999;DHT22;51319;52.162;5.302;2023-07-28T00:32:50;18.80;99.90
43999;DHT22;51319;52.162;5.302;2023-07-28T00:35:17;18.80;99.90
43999;DHT22;51319;52.162;5.302;2023-07-28T00:37:44;18.80;99.90
43999;DHT22;51319;52.162;5.302;2023-07-28T00:40:11;18.80;99.90
43999;DHT22;51319;52.162;5.302;2023-07-28T00:42:39;18.80;99.90
43999;DHT22;51319;52.162;5.302;2023-07-28T00:45:06;18.80;99.90
43999;DHT22;51319;52.162;5.302;2023-07-28T00:47:34;18.80;99.90
43999;DHT22;51319;52.162;5.302;2023-07-28T00:50:02;18.80;99.90
43999;DHT22;51319;52.162;5.302;2023-07-28T00:52:29;18.80;99.90
43999;DHT22;51319;52.162;5.302;2023-07-28T00:54:56;18.80;99.90
43999;DHT22;51319;52.162;5.302;2023-07-28T00:57:23;18.80;99.90
43999;DHT22;51319;52.162;5.302;2023-07-28T00:59:50;18.80;99.90
43999;DHT22;51319;52.162;5.302;2023-07-28T01:02:18;18.80;99.90
43999;DHT22;51319;52.162;5.302;2023-07-28T01:04:46;18.80;99.90
43999;DHT22;51319;52.162;5.302;2023-07-28T01:08:06;18.70;99.90
43999;DHT22;51319;52.162;5.302;2023-07-28T01:10:31;18.70;99.90
43999;DHT22;51319;52.162;5.302;2023-07-28T01:12:59;18.70;99.90
43999;DHT22;51319;52.162;5.302;2023-07-28T01:15:26;18.70;99.90
43999;DHT22;51319;52.162;5.302;2023-07-28T01:17:53;18.70;99.90
43999;DHT22;51319;52.162;5.302;2023-07-28T01:20:22;18.70;99.90
43999;DHT22;51319;52.162;5.302;2023-07-28T01:28:11;18.70;99.90
43999;DHT22;51319;52.162;5.302;2023-07-28T01:30:39;18.70;99.90
43999;DHT22;51319;52.162;5.302;2023-07-28T01:33:07;18.70;99.90
43999;DHT22;51319;52.162;5.302;2023-07-28T01:35:38;18.70;99.90
43999;DHT22;51319;52.162;5.302;2023-07-28T01:38:05;18.70;99.90
43999;DHT22;51319;52.162;5.302;2023-07-28T01:40:32;18.70;99.90
43999;DHT22;51319;52.162;5.302;2023-07-28T01:42:59;18.70;99.90
43999;DHT22;51319;52.162;5.302;2023-07-28T01:45:26;18.70;99.90
43999;DHT22;51319;52.162;5.302;2023-07-28T01:47:53;18.70;99.90
43999;DHT22;51319;52.162;5.302;2023-07-28T01:50:20;18.80;99.90
43999;DHT22;51319;52.162;5.302;2023-07-28T01:52:47;18.70;99.90
43999;DHT22;51319;52.162;5.302;2023-07-28T01:55:14;18.70;99.90
43999;DHT22;51319;52.162;5.302;2023-07-28T01:57:50;18.70;99.90
43999;DHT22;51319;52.162;5.302;2023-07-28T02:00:18;18.70;99.90
43999;DHT22;51319;52.162;5.302;2023-07-28T02:02:46;18.70;99.90
43999;DHT22;51319;52.162;5.302;2023-07-28T02:05:13;18.70;99.90
43999;DHT22;51319;52.162;5.302;2023-07-28T02:07:41;18.70;99.90
43999;DHT22;51319;52.162;5.302;2023-07-28T02:10:08;18.70;99.90
43999;DHT22;51319;52.162;5.302;2023-07-28T02:12:37;18.70;99.90
43999;DHT22;51319;52.162;5.302;2023-07-28T02:15:05;18.70;99.90
43999;DHT22;51319;52.162;5.302;2023-07-28T02:17:32;18.70;99.90
43999;DHT22;51319;52.162;5.302;2023-07-28T02:19:59;18.70;99.90
43999;DHT22;51319;52.162;5.302;2023-07-28T02:22:26;18.70;99.90
43999;DHT22;51319;52.162;5.302;2023-07-28T02:24:53;18.70;99.90
43999;DHT22;51319;52.162;5.302;2023-07-28T02:27:20;18.70;99.90
43999;DHT22;51319;52.162;5.302;2023-07-28T02:29:47;18.70;99.90
43999;DHT22;51319;52.162;5.302;2023-07-28T02:32:14;18.70;99.90
43999;DHT22;51319;52.162;5.302;2023-07-28T02:34:41;18.70;99.90
43999;DHT22;51319;52.162;5.302;2023-07-28T02:37:08;18.70;99.90
43999;DHT22;51319;52.162;5.302;2023-07-28T02:39:35;18.70;99.90
43999;DHT22;51319;52.162;5.302;2023-07-28T02:42:02;18.70;99.90
43999;DHT22;51319;52.162;5.302;2023-07-28T02:44:29;18.70;99.90
43999;DHT22;51319;52.162;5.302;2023-07-28T02:46:56;18.70;99.90
43999;DHT22;51319;52.162;5.302;2023-07-28T02:49:23;18.70;99.90
43999;DHT22;51319;52.162;5.302;2023-07-28T02:51:50;18.70;99.90
43999;DHT22;51319;52.162;5.302;2023-07-28T02:54:16;18.80;99.90
43999;DHT22;51319;52.162;5.302;2023-07-28T02:56:43;18.70;99.90
43999;DHT22;51319;52.162;5.302;2023-07-28T02:59:11;18.70;99.90
43999;DHT22;51319;52.162;5.302;2023-07-28T03:01:39;18.80;99.90
43999;DHT22;51319;52.162;5.302;2023-07-28T03:04:06;18.80;99.90
43999;DHT22;51319;52.162;5.302;2023-07-28T03:06:33;18.80;99.90
43999;DHT22;51319;52.162;5.302;2023-07-28T03:09:00;18.70;99.90
43999;DHT22;51319;52.162;5.302;2023-07-28T03:11:27;18.70;99.90
43999;DHT22;51319;52.162;5.302;2023-07-28T03:13:54;18.80;99.90
43999;DHT22;51319;52.162;5.302;2023-07-28T03:16:21;18.80;99.90
43999;DHT22;51319;52.162;5.302;2023-07-28T03:18:48;18.80;99.90
43999;DHT22;51319;52.162;5.302;2023-07-28T03:21:15;18.80;99.90
43999;DHT22;51319;52.162;5.302;2023-07-28T03:23:42;18.80;99.90
43999;DHT22;51319;52.162;5.302;2023-07-28T03:26:09;18.80;99.90
43999;DHT22;51319;52.162;5.302;2023-07-28T03:28:36;18.80;99.90
43999;DHT22;51319;52.162;5.302;2023-07-28T03:31:03;18.80;99.90
43999;DHT22;51319;52.162;5.302;2023-07-28T03:33:29;18.80;99.90
43999;DHT22;51319;52.162;5.302;2023-07-28T03:35:56;18.80;99.90
43999;DHT22;51319;52.162;5.302;2023-07-28T03:38:23;18.80;99.90
43999;DHT22;51319;52.162;5.302;2023-07-28T03:40:51;18.80;99.90
43999;DHT22;51319;52.162;5.302;2023-07-28T03:43:18;18.80;99.90
43999;DHT22;51319;52.162;5.302;2023-07-28T03:45:45;18.80;99.90
43999;DHT22;51319;52.162;5.302;2023-07-28T03:48:12;18.80;99.90
43999;DHT22;51319;52.162;5.302;2023-07-28T03:50:38;18.80;99.90
43999;DHT22;51319;52.162;5.302;2023-07-28T03:53:05;18.80;99.90
43999;DHT22;51319;52.162;5.302;2023-07-28T03:55:32;18.80;99.90
43999;DHT22;51319;52.162;5.302;2023-07-28T03:57:59;18.80;99.90
43999;DHT22;51319;52.162;5.302;2023-07-28T04:00:26;18.80;99.90
43999;DHT22;51319;52.162;5.302;2023-07-28T04:02:53;18.80;99.90
43999;DHT22;51319;52.162;5.302;2023-07-28T04:05:20;18.80;99.90
43999;DHT22;51319;52.162;5.302;2023-07-28T04:07:47;18.90;99.90
43999;DHT22;51319;52.162;5.302;2023-07-28T04:10:14;18.90;99.90
43999;DHT22;51319;52.162;5.302;2023-07-28T04:12:41;18.90;99.90
43999;DHT22;51319;52.162;5.302;2023-07-28T04:15:08;18.90;99.90
43999;DHT22;51319;52.162;5.302;2023-07-28T04:17:35;19.00;99.90
43999;DHT22;51319;52.162;5.302;2023-07-28T04:20:03;19.00;99.90
43999;DHT22;51319;52.162;5.302;2023-07-28T04:22:30;19.00;99.90
43999;DHT22;51319;52.162;5.302;2023-07-28T04:24:56;19.00;99.90
43999;DHT22;51319;52.162;5.302;2023-07-28T04:27:23;19.00;99.90
43999;DHT22;51319;52.162;5.302;2023-07-28T04:29:50;19.00;99.90
43999;DHT22;51319;52.162;5.302;2023-07-28T04:32:17;19.00;99.90
43999;DHT22;51319;52.162;5.302;2023-07-28T04:34:44;19.00;99.90
43999;DHT22;51319;52.162;5.302;2023-07-28T04:37:11;19.00;99.90
43999;DHT22;51319;52.162;5.302;2023-07-28T04:39:38;19.00;99.90
43999;DHT22;51319;52.162;5.302;2023-07-28T04:42:04;19.10;99.90
43999;DHT22;51319;52.162;5.302;2023-07-28T04:44:31;19.00;99.90
43999;DHT22;51319;52.162;5.302;2023-07-28T04:46:58;19.00;99.90
43999;DHT22;51319;52.162;5.302;2023-07-28T04:49:25;19.10;99.90
43999;DHT22;51319;52.162;5.302;2023-07-28T04:51:52;19.10;99.90
43999;DHT22;51319;52.162;5.302;2023-07-28T04:54:19;19.00;99.90
43999;DHT22;51319;52.162;5.302;2023-07-28T04:56:46;19.10;99.90
43999;DHT22;51319;52.162;5.302;2023-07-28T04:59:13;19.00;99.90
43999;DHT22;51319;52.162;5.302;2023-07-28T05:01:40;19.00;99.90
43999;DHT22;51319;52.162;5.302;2023-07-28T05:04:07;19.10;99.90
43999;DHT22;51319;52.162;5.302;2023-07-28T05:06:34;19.10;99.90
43999;DHT22;51319;52.162;5.302;2023-07-28T05:09:01;19.10;99.90
43999;DHT22;51319;52.162;5.302;2023-07-28T05:11:28;19.10;99.90
43999;DHT22;51319;52.162;5.302;2023-07-28T05:13:56;19.10;99.90
43999;DHT22;51319;52.162;5.302;2023-07-28T05:16:23;19.10;99.90
43999;DHT22;51319;52.162;5.302;2023-07-28T05:18:50;19.10;99.90
43999;DHT22;51319;52.162;5.302;2023-07-28T05:21:17;19.10;99.90
43999;DHT22;51319;52.162;5.302;2023-07-28T05:23:44;19.20;99.90
43999;DHT22;51319;52.162;5.302;2023-07-28T05:26:11;19.20;99.90
43999;DHT22;51319;52.162;5.302;2023-07-28T05:28:37;19.30;99.90
43999;DHT22;51319;52.162;5.302;2023-07-28T05:31:05;19.30;99.90
43999;DHT22;51319;52.162;5.302;2023-07-28T05:33:32;19.30;99.90
43999;DHT22;51319;52.162;5.302;2023-07-28T05:36:04;19.30;99.90
43999;DHT22;51319;52.162;5.302;2023-07-28T05:38:34;19.30;99.90
43999;DHT22;51319;52.162;5.302;2023-07-28T05:41:04;19.30;99.90
43999;DHT22;51319;52.162;5.302;2023-07-28T05:43:34;19.30;99.90
43999;DHT22;51319;52.162;5.302;2023-07-28T05:46:01;19.30;99.90
43999;DHT22;51319;52.162;5.302;2023-07-28T05:48:28;19.40;99.90
43999;DHT22;51319;52.162;5.302;2023-07-28T05:50:55;19.40;99.90
43999;DHT22;51319;52.162;5.302;2023-07-28T05:53:22;19.50;99.90
43999;DHT22;51319;52.162;5.302;2023-07-28T05:55:49;19.40;99.90
43999;DHT22;51319;52.162;5.302;2023-07-28T05:58:16;19.50;99.90
43999;DHT22;51319;52.162;5.302;2023-07-28T06:00:43;19.60;99.90
43999;DHT22;51319;52.162;5.302;2023-07-28T06:03:10;19.60;99.90
43999;DHT22;51319;52.162;5.302;2023-07-28T06:05:39;19.60;99.90
43999;DHT22;51319;52.162;5.302;2023-07-28T06:08:07;19.60;99.90
43999;DHT22;51319;52.162;5.302;2023-07-28T06:10:34;19.60;99.90
43999;DHT22;51319;52.162;5.302;2023-07-28T06:13:01;19.70;99.90
43999;DHT22;51319;52.162;5.302;2023-07-28T06:15:29;19.70;99.90
43999;DHT22;51319;52.162;5.302;2023-07-28T06:17:56;19.80;99.90
43999;DHT22;51319;52.162;5.302;2023-07-28T06:20:23;19.70;99.90
43999;DHT22;51319;52.162;5.302;2023-07-28T06:22:50;19.70;99.90
43999;DHT22;51319;52.162;5.302;2023-07-28T06:25:17;19.80;99.90
43999;DHT22;51319;52.162;5.302;2023-07-28T06:27:44;19.70;99.90
43999;DHT22;51319;52.162;5.302;2023-07-28T06:30:11;19.70;99.90
43999;DHT22;51319;52.162;5.302;2023-07-28T06:32:38;19.70;99.90
43999;DHT22;51319;52.162;5.302;2023-07-28T06:35:05;19.70;99.90
43999;DHT22;51319;52.162;5.302;2023-07-28T06:37:36;19.80;99.90
43999;DHT22;51319;52.162;5.302;2023-07-28T06:40:07;19.80;99.90
43999;DHT22;51319;52.162;5.302;2023-07-28T06:42:37;19.90;99.90
43999;DHT22;51319;52.162;5.302;2023-07-28T06:45:05;20.00;99.90
43999;DHT22;51319;52.162;5.302;2023-07-28T06:47:32;20.00;99.90
43999;DHT22;51319;52.162;5.302;2023-07-28T06:49:59;20.10;99.90
43999;DHT22;51319;52.162;5.302;2023-07-28T06:52:26;20.20;99.90
43999;DHT22;51319;52.162;5.302;2023-07-28T06:54:53;20.20;99.90
43999;DHT22;51319;52.162;5.302;2023-07-28T06:57:21;20.20;99.90
43999;DHT22;51319;52.162;5.302;2023-07-28T06:59:49;20.10;99.90
43999;DHT22;51319;52.162;5.302;2023-07-28T07:02:16;20.10;99.90
43999;DHT22;51319;52.162;5.302;2023-07-28T07:04:43;20.10;99.90
43999;DHT22;51319;52.162;5.302;2023-07-28T07:07:10;20.10;99.90
43999;DHT22;51319;52.162;5.302;2023-07-28T07:09:37;20.10;99.90
43999;DHT22;51319;52.162;5.302;2023-07-28T07:12:05;20.10;99.90
43999;DHT22;51319;52.162;5.302;2023-07-28T07:14:32;20.20;99.90
43999;DHT22;51319;52.162;5.302;2023-07-28T07:17:02;20.20;99.90
43999;DHT22;51319;52.162;5.302;2023-07-28T07:19:29;20.30;99.90
43999;DHT22;51319;52.162;5.302;2023-07-28T07:21:57;20.30;99.90
43999;DHT22;51319;52.162;5.302;2023-07-28T07:24:24;20.30;99.90
43999;DHT22;51319;52.162;5.302;2023-07-28T07:26:51;20.30;99.90
43999;DHT22;51319;52.162;5.302;2023-07-28T07:29:18;20.20;99.90
43999;DHT22;51319;52.162;5.302;2023-07-28T07:31:45;20.30;99.90
43999;DHT22;51319;52.162;5.302;2023-07-28T07:34:12;20.40;99.90
43999;DHT22;51319;52.162;5.302;2023-07-28T07:36:38;20.50;99.90
43999;DHT22;51319;52.162;5.302;2023-07-28T07:39:06;20.60;99.90
43999;DHT22;51319;52.162;5.302;2023-07-28T07:41:33;20.70;99.90
43999;DHT22;51319;52.162;5.302;2023-07-28T07:44:01;20.80;99.90
43999;DHT22;51319;52.162;5.302;2023-07-28T07:46:29;20.90;99.90
43999;DHT22;51319;52.162;5.302;2023-07-28T07:48:56;21.10;99.90
43999;DHT22;51319;52.162;5.302;2023-07-28T07:51:23;21.20;99.90
43999;DHT22;51319;52.162;5.302;2023-07-28T07:53:50;21.20;99.90
43999;DHT22;51319;52.162;5.302;2023-07-28T07:56:17;21.20;99.90
43999;DHT22;51319;52.162;5.302;2023-07-28T07:58:44;21.20;99.90
43999;DHT22;51319;52.162;5.302;2023-07-28T08:01:11;21.10;99.90
43999;DHT22;51319;52.162;5.302;2023-07-28T08:03:39;21.10;99.90
43999;DHT22;51319;52.162;5.302;2023-07-28T08:06:06;21.00;99.90
43999;DHT22;51319;52.162;5.302;2023-07-28T08:08:33;20.90;99.90
43999;DHT22;51319;52.162;5.302;2023-07-28T08:11:00;21.00;99.90
43999;DHT22;51319;52.162;5.302;2023-07-28T08:13:27;21.10;99.90
43999;DHT22;51319;52.162;5.302;2023-07-28T08:15:55;21.20;99.90
43999;DHT22;51319;52.162;5.302;2023-07-28T08:18:22;21.30;99.90
43999;DHT22;51319;52.162;5.302;2023-07-28T08:20:49;21.40;99.90
43999;DHT22;51319;52.162;5.302;2023-07-28T08:23:16;22.00;99.90
43999;DHT22;51319;52.162;5.302;2023-07-28T08:25:43;22.90;99.50
43999;DHT22;51319;52.162;5.302;2023-07-28T08:28:10;23.70;97.10
43999;DHT22;51319;52.162;5.302;2023-07-28T08:30:37;24.60;95.00
43999;DHT22;51319;52.162;5.302;2023-07-28T08:33:05;26.00;92.00
43999;DHT22;51319;52.162;5.302;2023-07-28T08:35:34;27.40;86.60
43999;DHT22;51319;52.162;5.302;2023-07-28T08:38:01;28.30;79.20
43999;DHT22;51319;52.162;5.302;2023-07-28T08:40:30;29.00;76.00
43999;DHT22;51319;52.162;5.302;2023-07-28T08:42:57;29.90;73.70
43999;DHT22;51319;52.162;5.302;2023-07-28T08:45:24;30.50;71.20
43999;DHT22;51319;52.162;5.302;2023-07-28T08:47:51;30.40;68.30
43999;DHT22;51319;52.162;5.302;2023-07-28T08:50:18;30.00;67.90
43999;DHT22;51319;52.162;5.302;2023-07-28T08:52:45;29.60;69.30
43999;DHT22;51319;52.162;5.302;2023-07-28T08:55:12;29.00;68.70
43999;DHT22;51319;52.162;5.302;2023-07-28T08:57:40;28.40;69.50
43999;DHT22;51319;52.162;5.302;2023-07-28T09:00:08;27.90;70.30
43999;DHT22;51319;52.162;5.302;2023-07-28T09:02:36;27.50;70.90
43999;DHT22;51319;52.162;5.302;2023-07-28T09:05:04;27.40;71.50
43999;DHT22;51319;52.162;5.302;2023-07-28T09:07:37;27.50;71.10
43999;DHT22;51319;52.162;5.302;2023-07-28T09:10:04;28.00;70.50
43999;DHT22;51319;52.162;5.302;2023-07-28T09:12:32;29.20;68.60
43999;DHT22;51319;52.162;5.302;2023-07-28T09:14:59;30.20;65.50
43999;DHT22;51319;52.162;5.302;2023-07-28T09:17:27;30.40;64.60
43999;DHT22;51319;52.162;5.302;2023-07-28T09:19:58;30.80;63.40
43999;DHT22;51319;52.162;5.302;2023-07-28T09:22:25;31.50;62.70
43999;DHT22;51319;52.162;5.302;2023-07-28T09:24:52;32.60;59.80
43999;DHT22;51319;52.162;5.302;2023-07-28T09:27:24;32.10;58.70
43999;DHT22;51319;52.162;5.302;2023-07-28T09:29:53;31.50;59.30
43999;DHT22;51319;52.162;5.302;2023-07-28T09:32:32;30.70;59.60
43999;DHT22;51319;52.162;5.302;2023-07-28T09:35:09;31.30;59.90
43999;DHT22;51319;52.162;5.302;2023-07-28T09:37:39;32.10;58.60
43999;DHT22;51319;52.162;5.302;2023-07-28T09:40:11;32.10;58.10
43999;DHT22;51319;52.162;5.302;2023-07-28T09:42:40;31.50;57.50
43999;DHT22;51319;52.162;5.302;2023-07-28T09:45:08;31.00;59.20
43999;DHT22;51319;52.162;5.302;2023-07-28T09:47:55;30.30;60.30
43999;DHT22;51319;52.162;5.302;2023-07-28T09:50:27;29.40;61.80
43999;DHT22;51319;52.162;5.302;2023-07-28T09:52:57;28.60;63.70
43999;DHT22;51319;52.162;5.302;2023-07-28T09:55:24;27.90;65.30
43999;DHT22;51319;52.162;5.302;2023-07-28T09:57:54;27.50;67.50
43999;DHT22;51319;52.162;5.302;2023-07-28T10:00:22;28.80;65.80
43999;DHT22;51319;52.162;5.302;2023-07-28T10:02:50;29.20;63.90
43999;DHT22;51319;52.162;5.302;2023-07-28T10:05:17;29.90;64.00
43999;DHT22;51319;52.162;5.302;2023-07-28T10:07:47;29.80;62.60
43999;DHT22;51319;52.162;5.302;2023-07-28T10:10:15;29.50;62.80
43999;DHT22;51319;52.162;5.302;2023-07-28T10:12:42;29.00;64.10
43999;DHT22;51319;52.162;5.302;2023-07-28T10:15:14;28.70;65.00
43999;DHT22;51319;52.162;5.302;2023-07-28T10:17:59;28.30;65.60
43999;DHT22;51319;52.162;5.302;2023-07-28T10:20:37;28.60;65.90
43999;DHT22;51319;52.162;5.302;2023-07-28T10:23:14;30.80;62.10
43999;DHT22;51319;52.162;5.302;2023-07-28T10:25:43;32.80;59.80
43999;DHT22;51319;52.162;5.302;2023-07-28T10:28:27;32.70;55.50
43999;DHT22;51319;52.162;5.302;2023-07-28T10:30:59;31.40;56.90
43999;DHT22;51319;52.162;5.302;2023-07-28T10:33:40;30.30;58.20
43999;DHT22;51319;52.162;5.302;2023-07-28T10:41:29;28.60;62.20
43999;DHT22;51319;52.162;5.302;2023-07-28T10:43:57;28.10;63.80
43999;DHT22;51319;52.162;5.302;2023-07-28T10:46:26;27.80;64.60
43999;DHT22;51319;52.162;5.302;2023-07-28T10:48:53;27.60;66.00
43999;DHT22;51319;52.162;5.302;2023-07-28T10:51:23;27.40;66.30
43999;DHT22;51319;52.162;5.302;2023-07-28T10:54:00;27.20;66.80
43999;DHT22;51319;52.162;5.302;2023-07-28T10:56:31;27.30;67.70
43999;DHT22;51319;52.162;5.302;2023-07-28T10:59:01;27.20;67.90
43999;DHT22;51319;52.162;5.302;2023-07-28T11:01:34;26.90;68.10
43999;DHT22;51319;52.162;5.302;2023-07-28T11:04:23;26.60;68.40
43999;DHT22;51319;52.162;5.302;2023-07-28T11:06:50;26.30;69.30
43999;DHT22;51319;52.162;5.302;2023-07-28T11:09:19;26.20;70.10
43999;DHT22;51319;52.162;5.302;2023-07-28T11:11:49;25.90;70.20
43999;DHT22;51319;52.162;5.302;2023-07-28T11:14:17;25.70;70.90
43999;DHT22;51319;52.162;5.302;2023-07-28T11:16:45;25.60;71.60
43999;DHT22;51319;52.162;5.302;2023-07-28T11:19:15;25.50;72.20
43999;DHT22;51319;52.162;5.302;2023-07-28T11:21:43;25.40;72.50
43999;DHT22;51319;52.162;5.302;2023-07-28T11:24:10;25.30;72.90
43999;DHT22;51319;52.162;5.302;2023-07-28T11:26:39;25.30;73.40
43999;DHT22;51319;52.162;5.302;2023-07-28T11:29:08;25.30;73.70
43999;DHT22;51319;52.162;5.302;2023-07-28T11:31:35;25.30;73.60
43999;DHT22;51319;52.162;5.302;2023-07-28T11:34:02;25.30;74.00
43999;DHT22;51319;52.162;5.302;2023-07-28T11:36:30;25.30;74.80
43999;DHT22;51319;52.162;5.302;2023-07-28T11:38:59;25.20;75.10
43999;DHT22;51319;52.162;5.302;2023-07-28T11:41:27;25.10;75.10
43999;DHT22;51319;52.162;5.302;2023-07-28T11:43:54;25.10;75.50
43999;DHT22;51319;52.162;5.302;2023-07-28T11:46:38;25.00;75.20
43999;DHT22;51319;52.162;5.302;2023-07-28T11:49:17;25.00;75.50
43999;DHT22;51319;52.162;5.302;2023-07-28T11:51:47;25.00;75.90
43999;DHT22;51319;52.162;5.302;2023-07-28T11:54:16;25.00;75.70
43999;DHT22;51319;52.162;5.302;2023-07-28T11:56:45;24.90;75.70
43999;DHT22;51319;52.162;5.302;2023-07-28T11:59:14;24.80;76.30
43999;DHT22;51319;52.162;5.302;2023-07-28T12:02:11;24.90;76.80
43999;DHT22;51319;52.162;5.302;2023-07-28T12:04:41;25.40;77.80
43999;DHT22;51319;52.162;5.302;2023-07-28T12:07:17;26.30;75.10
43999;DHT22;51319;52.162;5.302;2023-07-28T12:18:03;26.80;72.20
43999;DHT22;51319;52.162;5.302;2023-07-28T12:20:38;28.10;69.20
43999;DHT22;51319;52.162;5.302;2023-07-28T12:23:07;28.00;67.90
43999;DHT22;51319;52.162;5.302;2023-07-28T12:25:38;27.70;68.20
43999;DHT22;51319;52.162;5.302;2023-07-28T12:28:05;27.30;68.40
43999;DHT22;51319;52.162;5.302;2023-07-28T12:30:44;27.50;69.70
43999;DHT22;51319;52.162;5.302;2023-07-28T12:33:11;27.80;68.30
43999;DHT22;51319;52.162;5.302;2023-07-28T12:35:41;28.30;67.70
43999;DHT22;51319;52.162;5.302;2023-07-28T12:38:11;28.20;67.00
43999;DHT22;51319;52.162;5.302;2023-07-28T12:40:41;27.80;67.10
43999;DHT22;51319;52.162;5.302;2023-07-28T12:43:11;27.90;67.50
43999;DHT22;51319;52.162;5.302;2023-07-28T12:45:58;28.70;66.80
43999;DHT22;51319;52.162;5.302;2023-07-28T12:48:28;29.00;65.70
43999;DHT22;51319;52.162;5.302;2023-07-28T12:50:55;30.10;65.60
43999;DHT22;51319;52.162;5.302;2023-07-28T12:53:25;30.80;64.00
43999;DHT22;51319;52.162;5.302;2023-07-28T12:55:52;30.80;60.80
43999;DHT22;51319;52.162;5.302;2023-07-28T12:58:22;31.40;59.50
43999;DHT22;51319;52.162;5.302;2023-07-28T13:00:52;31.90;58.80
43999;DHT22;51319;52.162;5.302;2023-07-28T13:03:24;32.00;58.10
43999;DHT22;51319;52.162;5.302;2023-07-28T13:05:52;31.70;56.50
43999;DHT22;51319;52.162;5.302;2023-07-28T13:22:00;28.90;60.90
43999;DHT22;51319;52.162;5.302;2023-07-28T13:24:26;29.50;60.70
43999;DHT22;51319;52.162;5.302;2023-07-28T13:34:58;30.00;57.90
43999;DHT22;51319;52.162;5.302;2023-07-28T13:37:25;30.10;57.60
43999;DHT22;51319;52.162;5.302;2023-07-28T13:39:52;30.10;57.40
43999;DHT22;51319;52.162;5.302;2023-07-28T13:42:19;29.90;58.70
43999;DHT22;51319;52.162;5.302;2023-07-28T13:44:46;29.80;58.60
43999;DHT22;51319;52.162;5.302;2023-07-28T13:47:24;29.60;58.60
43999;DHT22;51319;52.162;5.302;2023-07-28T13:49:52;29.40;59.50
43999;DHT22;51319;52.162;5.302;2023-07-28T13:52:20;29.30;60.20
43999;DHT22;51319;52.162;5.302;2023-07-28T13:54:48;29.90;60.30
43999;DHT22;51319;52.162;5.302;2023-07-28T13:57:19;30.50;60.30
43999;DHT22;51319;52.162;5.302;2023-07-28T13:59:46;30.90;59.10
43999;DHT22;51319;52.162;5.302;2023-07-28T14:02:13;30.80;57.90
43999;DHT22;51319;52.162;5.302;2023-07-28T14:04:39;30.50;59.00
43999;DHT22;51319;52.162;5.302;2023-07-28T14:07:06;30.60;59.70
43999;DHT22;51319;52.162;5.302;2023-07-28T14:09:34;30.70;59.10
43999;DHT22;51319;52.162;5.302;2023-07-28T14:12:05;30.70;58.90
43999;DHT22;51319;52.162;5.302;2023-07-28T14:14:32;30.50;58.90
43999;DHT22;51319;52.162;5.302;2023-07-28T14:17:01;30.30;57.40
43999;DHT22;51319;52.162;5.302;2023-07-28T14:21:57;29.80;58.50
43999;DHT22;51319;52.162;5.302;2023-07-28T14:24:24;29.90;58.50
43999;DHT22;51319;52.162;5.302;2023-07-28T14:26:51;29.90;58.90
43999;DHT22;51319;52.162;5.302;2023-07-28T14:29:18;29.90;57.90
43999;DHT22;51319;52.162;5.302;2023-07-28T14:31:45;29.80;58.50
43999;DHT22;51319;52.162;5.302;2023-07-28T14:34:15;29.60;58.50
43999;DHT22;51319;52.162;5.302;2023-07-28T14:36:42;29.30;59.00
43999;DHT22;51319;52.162;5.302;2023-07-28T14:39:12;29.00;59.90
43999;DHT22;51319;52.162;5.302;2023-07-28T14:41:39;28.70;60.40
43999;DHT22;51319;52.162;5.302;2023-07-28T14:44:05;28.40;60.60
43999;DHT22;51319;52.162;5.302;2023-07-28T14:46:32;28.20;62.10
43999;DHT22;51319;52.162;5.302;2023-07-28T14:48:59;28.10;62.10
43999;DHT22;51319;52.162;5.302;2023-07-28T14:51:26;28.00;62.70
43999;DHT22;51319;52.162;5.302;2023-07-28T14:53:53;27.80;62.80
43999;DHT22;51319;52.162;5.302;2023-07-28T15:07:02;26.70;65.90
43999;DHT22;51319;52.162;5.302;2023-07-28T15:14:47;26.60;67.50
43999;DHT22;51319;52.162;5.302;2023-07-28T15:17:17;26.70;67.10
43999;DHT22;51319;52.162;5.302;2023-07-28T15:19:44;26.80;67.00
43999;DHT22;51319;52.162;5.302;2023-07-28T15:22:14;26.80;67.30
43999;DHT22;51319;52.162;5.302;2023-07-28T15:24:41;26.80;66.90
43999;DHT22;51319;52.162;5.302;2023-07-28T15:32:41;26.50;66.50
43999;DHT22;51319;52.162;5.302;2023-07-28T15:35:09;26.40;67.00
43999;DHT22;51319;52.162;5.302;2023-07-28T15:37:37;26.30;67.20
43999;DHT22;51319;52.162;5.302;2023-07-28T15:40:05;26.20;67.10
43999;DHT22;51319;52.162;5.302;2023-07-28T15:42:37;26.10;67.40
43999;DHT22;51319;52.162;5.302;2023-07-28T15:45:04;26.10;67.60
43999;DHT22;51319;52.162;5.302;2023-07-28T15:47:33;26.10;68.10
43999;DHT22;51319;52.162;5.302;2023-07-28T15:50:03;26.10;67.70
43999;DHT22;51319;52.162;5.302;2023-07-28T15:52:32;26.20;68.00
43999;DHT22;51319;52.162;5.302;2023-07-28T15:55:02;26.30;67.70
43999;DHT22;51319;52.162;5.302;2023-07-28T15:57:30;26.30;67.60
43999;DHT22;51319;52.162;5.302;2023-07-28T15:59:57;26.30;67.50
43999;DHT22;51319;52.162;5.302;2023-07-28T16:02:25;26.40;67.70
43999;DHT22;51319;52.162;5.302;2023-07-28T16:04:52;26.40;67.20
43999;DHT22;51319;52.162;5.302;2023-07-28T16:07:19;26.40;66.90
43999;DHT22;51319;52.162;5.302;2023-07-28T16:09:46;26.40;67.00
43999;DHT22;51319;52.162;5.302;2023-07-28T16:14:58;26.30;67.20
43999;DHT22;51319;52.162;5.302;2023-07-28T16:17:25;26.10;67.60
43999;DHT22;51319;52.162;5.302;2023-07-28T16:19:52;26.00;68.70
43999;DHT22;51319;52.162;5.302;2023-07-28T16:22:19;25.90;69.90
43999;DHT22;51319;52.162;5.302;2023-07-28T16:27:22;25.80;70.20
43999;DHT22;51319;52.162;5.302;2023-07-28T16:40:46;25.10;72.00
43999;DHT22;51319;52.162;5.302;2023-07-28T16:43:14;25.00;72.20
43999;DHT22;51319;52.162;5.302;2023-07-28T16:48:22;24.90;72.30
43999;DHT22;51319;52.162;5.302;2023-07-28T16:50:50;24.80;71.90
43999;DHT22;51319;52.162;5.302;2023-07-28T16:53:22;24.70;71.10
43999;DHT22;51319;52.162;5.302;2023-07-28T16:55:54;24.70;71.60
43999;DHT22;51319;52.162;5.302;2023-07-28T16:58:28;24.50;71.80
43999;DHT22;51319;52.162;5.302;2023-07-28T17:01:01;24.40;72.20